sensor_id;sensor_type;location;lat;lon;timestamp;temperature;humidity
28175;SHT30;59417;44.788;10.334;2023-12-20T00:01:31;6.29;73.19
28175;SHT30;59417;44.788;10.334;2023-12-20T00:03:57;6.09;73.56
28175;SHT30;59417;44.788;10.334;2023-12-20T00:06:23;5.96;74.18
28175;SHT30;59417;44.788;10.334;2023-12-20T00:08:49;6.06;74.21
28175;SHT30;59417;44.788;10.334;2023-12-20T00:11:18;6.17;73.20
28175;SHT30;59417;44.788;10.334;2023-12-20T00:13:44;6.17;73.07
28175;SHT30;59417;44.788;10.334;2023-12-20T00:16:10;5.95;74.09
28175;SHT30;59417;44.788;10.334;2023-12-20T00:18:39;6.02;73.77
28175;SHT30;59417;44.788;10.334;2023-12-20T00:21:05;5.99;73.81
28175;SHT30;59417;44.788;10.334;2023-12-20T00:23:34;5.93;73.83
28175;SHT30;59417;44.788;10.334;2023-12-20T00:26:02;5.85;73.90
28175;SHT30;59417;44.788;10.334;2023-12-20T00:28:30;6.23;73.71
28175;SHT30;59417;44.788;10.334;2023-12-20T00:30:58;6.26;72.10
28175;SHT30;59417;44.788;10.334;2023-12-20T00:33:24;5.79;73.19
28175;SHT30;59417;44.788;10.334;2023-12-20T00:35:50;5.49;74.14
28175;SHT30;59417;44.788;10.334;2023-12-20T00:38:16;5.44;74.67
28175;SHT30;59417;44.788;10.334;2023-12-20T00:40:45;5.47;74.86
28175;SHT30;59417;44.788;10.334;2023-12-20T00:43:14;5.44;74.98
28175;SHT30;59417;44.788;10.334;2023-12-20T00:45:41;5.74;74.19
28175;SHT30;59417;44.788;10.334;2023-12-20T00:48:10;5.59;74.11
28175;SHT30;59417;44.788;10.334;2023-12-20T00:50:39;5.16;75.21
28175;SHT30;59417;44.788;10.334;2023-12-20T00:53:05;5.17;75.68
28175;SHT30;59417;44.788;10.334;2023-12-20T00:55:32;5.27;75.92
28175;SHT30;59417;44.788;10.334;2023-12-20T00:57:58;5.39;75.05
28175;SHT30;59417;44.788;10.334;2023-12-20T01:00:25;5.38;75.37
28175;SHT30;59417;44.788;10.334;2023-12-20T01:02:51;5.52;74.78
28175;SHT30;59417;44.788;10.334;2023-12-20T01:05:20;5.79;73.81
28175;SHT30;59417;44.788;10.334;2023-12-20T01:07:50;5.64;73.63
28175;SHT30;59417;44.788;10.334;2023-12-20T01:10:16;5.30;74.87
28175;SHT30;59417;44.788;10.334;2023-12-20T01:12:43;5.21;75.47
28175;SHT30;59417;44.788;10.334;2023-12-20T01:15:10;5.23;75.51
28175;SHT30;59417;44.788;10.334;2023-12-20T01:17:36;5.18;75.26
28175;SHT30;59417;44.788;10.334;2023-12-20T01:20:06;5.17;75.42
28175;SHT30;59417;44.788;10.334;2023-12-20T01:22:38;5.21;75.42
28175;SHT30;59417;44.788;10.334;2023-12-20T01:25:04;5.28;75.19
28175;SHT30;59417;44.788;10.334;2023-12-20T01:27:31;5.32;75.22
28175;SHT30;59417;44.788;10.334;2023-12-20T01:29:57;5.30;75.49
28175;SHT30;59417;44.788;10.334;2023-12-20T01:32:23;5.49;74.66
28175;SHT30;59417;44.788;10.334;2023-12-20T01:34:49;5.47;74.87
28175;SHT30;59417;44.788;10.334;2023-12-20T01:37:15;5.08;75.66
28175;SHT30;59417;44.788;10.334;2023-12-20T01:39:41;5.13;75.29
28175;SHT30;59417;44.788;10.334;2023-12-20T01:42:07;5.07;75.63
28175;SHT30;59417;44.788;10.334;2023-12-20T01:44:34;5.04;75.86
28175;SHT30;59417;44.788;10.334;2023-12-20T01:47:00;4.89;76.06
28175;SHT30;59417;44.788;10.334;2023-12-20T01:49:27;5.38;74.44
28175;SHT30;59417;44.788;10.334;2023-12-20T01:51:55;4.86;75.69
28175;SHT30;59417;44.788;10.334;2023-12-20T01:54:29;4.92;76.08
28175;SHT30;59417;44.788;10.334;2023-12-20T01:56:59;4.94;76.59
28175;SHT30;59417;44.788;10.334;2023-12-20T01:59:26;5.30;73.57
28175;SHT30;59417;44.788;10.334;2023-12-20T02:01:56;4.80;75.61
28175;SHT30;59417;44.788;10.334;2023-12-20T02:04:23;4.99;75.06
28175;SHT30;59417;44.788;10.334;2023-12-20T02:06:56;4.73;76.43
28175;SHT30;59417;44.788;10.334;2023-12-20T02:09:27;5.20;75.05
28175;SHT30;59417;44.788;10.334;2023-12-20T02:11:54;5.26;73.81
28175;SHT30;59417;44.788;10.334;2023-12-20T02:14:21;4.59;75.13
28175;SHT30;59417;44.788;10.334;2023-12-20T02:16:50;4.45;76.76
28175;SHT30;59417;44.788;10.334;2023-12-20T02:19:22;4.48;77.11
28175;SHT30;59417;44.788;10.334;2023-12-20T02:21:51;4.66;76.96
28175;SHT30;59417;44.788;10.334;2023-12-20T02:24:32;4.77;76.34
28175;SHT30;59417;44.788;10.334;2023-12-20T02:26:58;4.76;75.64
28175;SHT30;59417;44.788;10.334;2023-12-20T02:29:29;5.11;74.51
28175;SHT30;59417;44.788;10.334;2023-12-20T02:32:25;5.00;74.87
28175;SHT30;59417;44.788;10.334;2023-12-20T02:34:54;4.46;76.31
28175;SHT30;59417;44.788;10.334;2023-12-20T02:37:27;4.42;77.44
28175;SHT30;59417;44.788;10.334;2023-12-20T02:39:53;4.87;76.33
28175;SHT30;59417;44.788;10.334;2023-12-20T02:42:27;5.07;75.35
28175;SHT30;59417;44.788;10.334;2023-12-20T02:45:08;5.21;74.33
28175;SHT30;59417;44.788;10.334;2023-12-20T02:47:35;5.23;74.42
28175;SHT30;59417;44.788;10.334;2023-12-20T02:50:01;5.30;74.09
28175;SHT30;59417;44.788;10.334;2023-12-20T02:52:29;5.13;74.27
28175;SHT30;59417;44.788;10.334;2023-12-20T02:54:56;5.08;74.61
28175;SHT30;59417;44.788;10.334;2023-12-20T02:57:25;5.11;74.59
28175;SHT30;59417;44.788;10.334;2023-12-20T02:59:54;5.13;74.44
28175;SHT30;59417;44.788;10.334;2023-12-20T03:02:24;5.04;74.66
28175;SHT30;59417;44.788;10.334;2023-12-20T03:04:51;5.07;74.42
28175;SHT30;59417;44.788;10.334;2023-12-20T03:07:20;5.16;74.17
28175;SHT30;59417;44.788;10.334;2023-12-20T03:09:48;5.00;74.96
28175;SHT30;59417;44.788;10.334;2023-12-20T03:12:17;5.03;75.15
28175;SHT30;59417;44.788;10.334;2023-12-20T03:14:55;5.10;74.93
28175;SHT30;59417;44.788;10.334;2023-12-20T03:17:34;5.00;75.28
28175;SHT30;59417;44.788;10.334;2023-12-20T03:20:00;5.23;74.59
28175;SHT30;59417;44.788;10.334;2023-12-20T03:22:32;5.20;74.19
28175;SHT30;59417;44.788;10.334;2023-12-20T03:25:07;5.14;74.11
28175;SHT30;59417;44.788;10.334;2023-12-20T03:27:37;5.00;73.46
28175;SHT30;59417;44.788;10.334;2023-12-20T03:30:07;4.90;74.05
28175;SHT30;59417;44.788;10.334;2023-12-20T03:32:42;4.92;74.24
28175;SHT30;59417;44.788;10.334;2023-12-20T03:35:09;5.13;73.53
28175;SHT30;59417;44.788;10.334;2023-12-20T03:37:36;5.35;71.90
28175;SHT30;59417;44.788;10.334;2023-12-20T03:40:02;5.32;72.07
28175;SHT30;59417;44.788;10.334;2023-12-20T03:42:28;5.35;71.89
28175;SHT30;59417;44.788;10.334;2023-12-20T03:44:55;5.08;71.82
28175;SHT30;59417;44.788;10.334;2023-12-20T03:47:26;5.20;72.13
28175;SHT30;59417;44.788;10.334;2023-12-20T03:49:56;5.30;72.13
28175;SHT30;59417;44.788;10.334;2023-12-20T03:52:22;4.87;72.96
28175;SHT30;59417;44.788;10.334;2023-12-20T03:54:48;4.63;73.88
28175;SHT30;59417;44.788;10.334;2023-12-20T03:57:16;4.71;74.19
28175;SHT30;59417;44.788;10.334;2023-12-20T03:59:46;4.96;73.28
28175;SHT30;59417;44.788;10.334;2023-12-20T04:02:16;4.69;74.34
28175;SHT30;59417;44.788;10.334;2023-12-20T04:04:51;4.59;74.51
28175;SHT30;59417;44.788;10.334;2023-12-20T04:07:21;4.82;73.73
28175;SHT30;59417;44.788;10.334;2023-12-20T04:09:51;4.44;74.90
28175;SHT30;59417;44.788;10.334;2023-12-20T04:12:17;4.33;75.43
28175;SHT30;59417;44.788;10.334;2023-12-20T04:14:46;4.26;75.78
28175;SHT30;59417;44.788;10.334;2023-12-20T04:17:13;4.21;76.04
28175;SHT30;59417;44.788;10.334;2023-12-20T04:19:45;4.42;75.63
28175;SHT30;59417;44.788;10.334;2023-12-20T04:22:11;4.61;75.05
28175;SHT30;59417;44.788;10.334;2023-12-20T04:24:39;4.44;75.87
28175;SHT30;59417;44.788;10.334;2023-12-20T04:27:10;4.44;75.92
28175;SHT30;59417;44.788;10.334;2023-12-20T04:29:37;4.33;76.47
28175;SHT30;59417;44.788;10.334;2023-12-20T04:32:04;4.28;76.57
28175;SHT30;59417;44.788;10.334;2023-12-20T04:34:37;4.80;75.37
28175;SHT30;59417;44.788;10.334;2023-12-20T04:37:05;4.92;74.09
28175;SHT30;59417;44.788;10.334;2023-12-20T04:39:31;4.62;75.09
28175;SHT30;59417;44.788;10.334;2023-12-20T04:41:57;4.44;76.22
28175;SHT30;59417;44.788;10.334;2023-12-20T04:44:27;4.45;75.88
28175;SHT30;59417;44.788;10.334;2023-12-20T04:46:54;4.25;76.75
28175;SHT30;59417;44.788;10.334;2023-12-20T04:49:31;4.33;76.91
28175;SHT30;59417;44.788;10.334;2023-12-20T04:52:00;4.69;75.52
28175;SHT30;59417;44.788;10.334;2023-12-20T04:54:28;4.69;75.56
28175;SHT30;59417;44.788;10.334;2023-12-20T04:57:01;4.36;76.41
28175;SHT30;59417;44.788;10.334;2023-12-20T04:59:29;5.03;74.91
28175;SHT30;59417;44.788;10.334;2023-12-20T05:01:55;4.83;75.35
28175;SHT30;59417;44.788;10.334;2023-12-20T05:04:22;4.45;76.01
28175;SHT30;59417;44.788;10.334;2023-12-20T05:06:52;4.32;76.90
28175;SHT30;59417;44.788;10.334;2023-12-20T05:09:20;4.62;76.13
28175;SHT30;59417;44.788;10.334;2023-12-20T05:11:52;4.52;77.02
28175;SHT30;59417;44.788;10.334;2023-12-20T05:14:23;4.49;77.11
28175;SHT30;59417;44.788;10.334;2023-12-20T05:16:52;4.46;76.92
28175;SHT30;59417;44.788;10.334;2023-12-20T05:19:19;4.63;76.17
28175;SHT30;59417;44.788;10.334;2023-12-20T05:21:49;4.72;76.04
28175;SHT30;59417;44.788;10.334;2023-12-20T05:24:28;4.45;76.62
28175;SHT30;59417;44.788;10.334;2023-12-20T05:26:56;4.52;77.49
28175;SHT30;59417;44.788;10.334;2023-12-20T05:29:26;4.68;77.33
28175;SHT30;59417;44.788;10.334;2023-12-20T05:31:57;4.75;77.32
28175;SHT30;59417;44.788;10.334;2023-12-20T05:34:26;5.23;74.52
28175;SHT30;59417;44.788;10.334;2023-12-20T05:36:54;5.37;74.13
28175;SHT30;59417;44.788;10.334;2023-12-20T05:39:26;5.24;74.88
28175;SHT30;59417;44.788;10.334;2023-12-20T05:42:02;5.44;73.54
28175;SHT30;59417;44.788;10.334;2023-12-20T05:44:34;5.42;73.83
28175;SHT30;59417;44.788;10.334;2023-12-20T05:47:08;5.38;73.95
28175;SHT30;59417;44.788;10.334;2023-12-20T05:49:41;5.30;74.49
28175;SHT30;59417;44.788;10.334;2023-12-20T05:52:45;5.20;74.95
28175;SHT30;59417;44.788;10.334;2023-12-20T05:55:23;5.17;75.63
28175;SHT30;59417;44.788;10.334;2023-12-20T05:57:55;5.11;76.12
28175;SHT30;59417;44.788;10.334;2023-12-20T06:00:28;5.24;76.21
28175;SHT30;59417;44.788;10.334;2023-12-20T06:02:55;5.28;76.04
28175;SHT30;59417;44.788;10.334;2023-12-20T06:05:22;5.21;76.24
28175;SHT30;59417;44.788;10.334;2023-12-20T06:07:49;5.24;76.12
28175;SHT30;59417;44.788;10.334;2023-12-20T06:10:19;5.30;75.93
28175;SHT30;59417;44.788;10.334;2023-12-20T06:12:48;5.28;76.11
28175;SHT30;59417;44.788;10.334;2023-12-20T06:15:16;5.27;76.08
28175;SHT30;59417;44.788;10.334;2023-12-20T06:17:45;5.28;76.00
28175;SHT30;59417;44.788;10.334;2023-12-20T06:20:12;5.37;75.34
28175;SHT30;59417;44.788;10.334;2023-12-20T06:22:38;5.37;75.10
28175;SHT30;59417;44.788;10.334;2023-12-20T06:25:04;5.35;75.42
28175;SHT30;59417;44.788;10.334;2023-12-20T06:27:30;5.27;75.72
28175;SHT30;59417;44.788;10.334;2023-12-20T06:29:58;5.37;75.46
28175;SHT30;59417;44.788;10.334;2023-12-20T06:32:24;5.48;74.97
28175;SHT30;59417;44.788;10.334;2023-12-20T06:34:50;5.37;75.30
28175;SHT30;59417;44.788;10.334;2023-12-20T06:37:18;5.42;74.99
28175;SHT30;59417;44.788;10.334;2023-12-20T06:39:43;5.32;75.06
28175;SHT30;59417;44.788;10.334;2023-12-20T06:42:09;5.39;75.03
28175;SHT30;59417;44.788;10.334;2023-12-20T06:44:36;5.32;75.54
28175;SHT30;59417;44.788;10.334;2023-12-20T06:47:03;5.34;75.58
28175;SHT30;59417;44.788;10.334;2023-12-20T06:49:30;5.61;75.15
28175;SHT30;59417;44.788;10.334;2023-12-20T06:51:56;5.75;73.03
28175;SHT30;59417;44.788;10.334;2023-12-20T06:54:22;5.51;73.70
28175;SHT30;59417;44.788;10.334;2023-12-20T06:56:48;5.47;74.42
28175;SHT30;59417;44.788;10.334;2023-12-20T06:59:14;5.30;74.77
28175;SHT30;59417;44.788;10.334;2023-12-20T07:01:41;5.24;75.51
28175;SHT30;59417;44.788;10.334;2023-12-20T07:04:10;5.75;74.00
28175;SHT30;59417;44.788;10.334;2023-12-20T07:06:36;5.57;74.81
28175;SHT30;59417;44.788;10.334;2023-12-20T07:09:02;5.30;74.96
28175;SHT30;59417;44.788;10.334;2023-12-20T07:11:28;5.71;73.74
28175;SHT30;59417;44.788;10.334;2023-12-20T07:13:55;5.85;74.03
28175;SHT30;59417;44.788;10.334;2023-12-20T07:16:21;5.48;75.37
28175;SHT30;59417;44.788;10.334;2023-12-20T07:18:49;5.18;76.62
28175;SHT30;59417;44.788;10.334;2023-12-20T07:21:19;5.34;76.36
28175;SHT30;59417;44.788;10.334;2023-12-20T07:23:48;5.72;75.12
28175;SHT30;59417;44.788;10.334;2023-12-20T07:26:16;5.51;75.68
28175;SHT30;59417;44.788;10.334;2023-12-20T07:28:43;5.47;76.44
28175;SHT30;59417;44.788;10.334;2023-12-20T07:31:09;5.69;75.13
28175;SHT30;59417;44.788;10.334;2023-12-20T07:33:36;5.51;75.76
28175;SHT30;59417;44.788;10.334;2023-12-20T07:36:05;5.44;76.68
28175;SHT30;59417;44.788;10.334;2023-12-20T07:38:31;5.71;75.80
28175;SHT30;59417;44.788;10.334;2023-12-20T07:40:57;6.06;74.09
28175;SHT30;59417;44.788;10.334;2023-12-20T07:43:23;5.90;74.68
28175;SHT30;59417;44.788;10.334;2023-12-20T07:45:50;5.77;75.41
28175;SHT30;59417;44.788;10.334;2023-12-20T07:48:16;5.74;75.80
28175;SHT30;59417;44.788;10.334;2023-12-20T07:50:42;5.85;76.14
28175;SHT30;59417;44.788;10.334;2023-12-20T07:53:09;6.24;74.24
28175;SHT30;59417;44.788;10.334;2023-12-20T07:55:39;5.98;75.01
28175;SHT30;59417;44.788;10.334;2023-12-20T07:58:05;6.26;73.43
28175;SHT30;59417;44.788;10.334;2023-12-20T08:00:31;6.17;73.73
28175;SHT30;59417;44.788;10.334;2023-12-20T08:02:57;6.00;74.65
28175;SHT30;59417;44.788;10.334;2023-12-20T08:05:25;6.33;74.34
28175;SHT30;59417;44.788;10.334;2023-12-20T08:07:54;6.55;73.82
28175;SHT30;59417;44.788;10.334;2023-12-20T08:10:19;6.45;73.76
28175;SHT30;59417;44.788;10.334;2023-12-20T08:12:46;6.40;73.28
28175;SHT30;59417;44.788;10.334;2023-12-20T08:15:15;6.34;73.32
28175;SHT30;59417;44.788;10.334;2023-12-20T08:17:41;6.30;73.63
28175;SHT30;59417;44.788;10.334;2023-12-20T08:20:08;6.34;73.63
28175;SHT30;59417;44.788;10.334;2023-12-20T08:22:34;6.33;73.86
28175;SHT30;59417;44.788;10.334;2023-12-20T08:24:59;6.30;74.01
28175;SHT30;59417;44.788;10.334;2023-12-20T08:27:26;6.40;73.95
28175;SHT30;59417;44.788;10.334;2023-12-20T08:29:54;6.47;73.56
28175;SHT30;59417;44.788;10.334;2023-12-20T08:32:21;6.51;73.28
28175;SHT30;59417;44.788;10.334;2023-12-20T08:34:47;6.50;73.39
28175;SHT30;59417;44.788;10.334;2023-12-20T08:37:13;6.61;73.13
28175;SHT30;59417;44.788;10.334;2023-12-20T08:39:38;6.63;72.90
28175;SHT30;59417;44.788;10.334;2023-12-20T08:42:04;6.71;73.11
28175;SHT30;59417;44.788;10.334;2023-12-20T08:44:31;6.61;72.88
28175;SHT30;59417;44.788;10.334;2023-12-20T08:46:57;6.70;73.39
28175;SHT30;59417;44.788;10.334;2023-12-20T08:49:23;6.64;72.46
28175;SHT30;59417;44.788;10.334;2023-12-20T08:51:52;6.71;72.60
28175;SHT30;59417;44.788;10.334;2023-12-20T08:54:20;6.73;72.30
28175;SHT30;59417;44.788;10.334;2023-12-20T08:56:47;6.73;72.88
28175;SHT30;59417;44.788;10.334;2023-12-20T08:59:14;6.77;71.86
28175;SHT30;59417;44.788;10.334;2023-12-20T09:01:41;6.85;71.51
28175;SHT30;59417;44.788;10.334;2023-12-20T09:04:07;6.92;71.94
28175;SHT30;59417;44.788;10.334;2023-12-20T09:06:33;6.95;71.53
28175;SHT30;59417;44.788;10.334;2023-12-20T09:08:58;7.09;71.44
28175;SHT30;59417;44.788;10.334;2023-12-20T09:11:24;7.09;71.31
28175;SHT30;59417;44.788;10.334;2023-12-20T09:13:50;7.02;71.95
28175;SHT30;59417;44.788;10.334;2023-12-20T09:16:16;7.05;71.71
28175;SHT30;59417;44.788;10.334;2023-12-20T09:18:42;7.08;71.99
28175;SHT30;59417;44.788;10.334;2023-12-20T09:21:08;7.20;70.95
28175;SHT30;59417;44.788;10.334;2023-12-20T09:23:34;7.23;70.93
28175;SHT30;59417;44.788;10.334;2023-12-20T09:26:00;7.22;71.35
28175;SHT30;59417;44.788;10.334;2023-12-20T09:28:26;7.22;71.75
28175;SHT30;59417;44.788;10.334;2023-12-20T09:30:52;7.26;72.03
28175;SHT30;59417;44.788;10.334;2023-12-20T09:33:21;7.30;72.30
28175;SHT30;59417;44.788;10.334;2023-12-20T09:35:48;7.37;72.68
28175;SHT30;59417;44.788;10.334;2023-12-20T09:38:18;7.43;72.89
28175;SHT30;59417;44.788;10.334;2023-12-20T09:40:44;7.53;72.38
28175;SHT30;59417;44.788;10.334;2023-12-20T09:43:14;7.60;72.58
28175;SHT30;59417;44.788;10.334;2023-12-20T09:45:42;7.64;72.53
28175;SHT30;59417;44.788;10.334;2023-12-20T09:48:11;7.70;71.62
28175;SHT30;59417;44.788;10.334;2023-12-20T09:50:39;7.74;71.69
28175;SHT30;59417;44.788;10.334;2023-12-20T09:53:14;7.77;71.62
28175;SHT30;59417;44.788;10.334;2023-12-20T09:55:41;7.80;71.58
28175;SHT30;59417;44.788;10.334;2023-12-20T09:58:10;7.83;71.24
28175;SHT30;59417;44.788;10.334;2023-12-20T10:00:45;7.88;71.29
28175;SHT30;59417;44.788;10.334;2023-12-20T10:03:13;7.95;71.35
28175;SHT30;59417;44.788;10.334;2023-12-20T10:05:43;8.04;71.07
28175;SHT30;59417;44.788;10.334;2023-12-20T10:08:08;8.11;70.84
28175;SHT30;59417;44.788;10.334;2023-12-20T10:10:37;8.12;71.75
28175;SHT30;59417;44.788;10.334;2023-12-20T10:13:11;8.15;72.47
28175;SHT30;59417;44.788;10.334;2023-12-20T10:15:38;8.32;72.28
28175;SHT30;59417;44.788;10.334;2023-12-20T10:18:06;8.28;72.19
28175;SHT30;59417;44.788;10.334;2023-12-20T10:20:34;8.24;72.21
28175;SHT30;59417;44.788;10.334;2023-12-20T10:23:00;8.28;71.98
28175;SHT30;59417;44.788;10.334;2023-12-20T10:25:27;8.25;72.15
28175;SHT30;59417;44.788;10.334;2023-12-20T10:28:12;8.24;72.38
28175;SHT30;59417;44.788;10.334;2023-12-20T10:30:40;8.21;72.50
28175;SHT30;59417;44.788;10.334;2023-12-20T10:33:07;8.22;72.62
28175;SHT30;59417;44.788;10.334;2023-12-20T10:35:37;8.24;72.91
28175;SHT30;59417;44.788;10.334;2023-12-20T10:38:05;8.25;73.15
28175;SHT30;59417;44.788;10.334;2023-12-20T10:40:37;8.22;73.35
28175;SHT30;59417;44.788;10.334;2023-12-20T10:43:04;8.26;73.44
28175;SHT30;59417;44.788;10.334;2023-12-20T10:45:31;8.25;73.43
28175;SHT30;59417;44.788;10.334;2023-12-20T10:48:01;8.26;73.19
28175;SHT30;59417;44.788;10.334;2023-12-20T10:50:29;8.24;73.28
28175;SHT30;59417;44.788;10.334;2023-12-20T10:53:00;8.28;73.40
28175;SHT30;59417;44.788;10.334;2023-12-20T10:55:29;8.35;73.20
28175;SHT30;59417;44.788;10.334;2023-12-20T10:58:01;8.38;72.84
28175;SHT30;59417;44.788;10.334;2023-12-20T11:00:29;8.54;72.66
28175;SHT30;59417;44.788;10.334;2023-12-20T11:03:01;8.59;72.84
28175;SHT30;59417;44.788;10.334;2023-12-20T11:05:50;8.52;73.59
28175;SHT30;59417;44.788;10.334;2023-12-20T11:08:45;8.50;73.83
28175;SHT30;59417;44.788;10.334;2023-12-20T11:14:23;8.48;74.81
28175;SHT30;59417;44.788;10.334;2023-12-20T11:17:05;8.50;74.34
28175;SHT30;59417;44.788;10.334;2023-12-20T11:22:24;8.56;73.24
28175;SHT30;59417;44.788;10.334;2023-12-20T11:24:52;8.57;73.05
28175;SHT30;59417;44.788;10.334;2023-12-20T11:27:20;8.53;73.54
28175;SHT30;59417;44.788;10.334;2023-12-20T11:29:52;8.50;73.95
28175;SHT30;59417;44.788;10.334;2023-12-20T11:34:55;8.56;75.05
28175;SHT30;59417;44.788;10.334;2023-12-20T11:37:22;8.62;75.04
28175;SHT30;59417;44.788;10.334;2023-12-20T11:40:11;8.70;74.14
28175;SHT30;59417;44.788;10.334;2023-12-20T11:42:41;8.59;74.54
28175;SHT30;59417;44.788;10.334;2023-12-20T11:45:14;8.59;75.00
28175;SHT30;59417;44.788;10.334;2023-12-20T11:47:48;8.54;75.75
28175;SHT30;59417;44.788;10.334;2023-12-20T11:50:19;8.54;75.85
28175;SHT30;59417;44.788;10.334;2023-12-20T11:52:46;8.57;75.82
28175;SHT30;59417;44.788;10.334;2023-12-20T11:55:12;8.59;75.64
28175;SHT30;59417;44.788;10.334;2023-12-20T11:57:38;8.62;75.48
28175;SHT30;59417;44.788;10.334;2023-12-20T12:00:06;8.67;75.36
28175;SHT30;59417;44.788;10.334;2023-12-20T12:02:39;8.74;75.35
28175;SHT30;59417;44.788;10.334;2023-12-20T12:05:05;8.76;75.32
28175;SHT30;59417;44.788;10.334;2023-12-20T12:07:40;8.76;75.14
28175;SHT30;59417;44.788;10.334;2023-12-20T12:10:10;8.69;75.22
28175;SHT30;59417;44.788;10.334;2023-12-20T12:12:36;8.62;74.88
28175;SHT30;59417;44.788;10.334;2023-12-20T12:15:05;8.66;74.59
28175;SHT30;59417;44.788;10.334;2023-12-20T12:17:34;8.64;74.58
28175;SHT30;59417;44.788;10.334;2023-12-20T12:23:04;8.72;74.27
28175;SHT30;59417;44.788;10.334;2023-12-20T12:26:06;8.72;73.92
28175;SHT30;59417;44.788;10.334;2023-12-20T12:28:46;8.74;73.92
28175;SHT30;59417;44.788;10.334;2023-12-20T12:31:14;8.74;73.98
28175;SHT30;59417;44.788;10.334;2023-12-20T12:33:50;8.70;73.59
28175;SHT30;59417;44.788;10.334;2023-12-20T12:36:29;8.79;73.56
28175;SHT30;59417;44.788;10.334;2023-12-20T12:38:57;8.80;72.74
28175;SHT30;59417;44.788;10.334;2023-12-20T12:41:31;8.83;72.71
28175;SHT30;59417;44.788;10.334;2023-12-20T12:43:58;8.80;72.47
28175;SHT30;59417;44.788;10.334;2023-12-20T12:46:26;8.90;71.64
28175;SHT30;59417;44.788;10.334;2023-12-20T12:49:02;8.83;70.99
28175;SHT30;59417;44.788;10.334;2023-12-20T12:51:31;8.73;71.24
28175;SHT30;59417;44.788;10.334;2023-12-20T12:54:00;8.64;71.67
28175;SHT30;59417;44.788;10.334;2023-12-20T12:57:14;8.79;71.64
28175;SHT30;59417;44.788;10.334;2023-12-20T13:00:07;8.80;72.01
28175;SHT30;59417;44.788;10.334;2023-12-20T13:02:36;8.84;72.02
28175;SHT30;59417;44.788;10.334;2023-12-20T13:05:04;8.92;72.17
28175;SHT30;59417;44.788;10.334;2023-12-20T13:07:30;8.93;72.37
28175;SHT30;59417;44.788;10.334;2023-12-20T13:09:56;8.97;72.24
28175;SHT30;59417;44.788;10.334;2023-12-20T13:12:22;8.96;72.11
28175;SHT30;59417;44.788;10.334;2023-12-20T13:14:51;9.03;71.91
28175;SHT30;59417;44.788;10.334;2023-12-20T13:17:17;9.23;71.54
28175;SHT30;59417;44.788;10.334;2023-12-20T13:19:43;9.42;70.52
28175;SHT30;59417;44.788;10.334;2023-12-20T13:22:09;9.62;70.32
28175;SHT30;59417;44.788;10.334;2023-12-20T13:24:41;9.61;69.92
28175;SHT30;59417;44.788;10.334;2023-12-20T13:27:10;9.58;70.02
28175;SHT30;59417;44.788;10.334;2023-12-20T13:29:36;9.55;70.18
28175;SHT30;59417;44.788;10.334;2023-12-20T13:32:04;9.57;69.88
28175;SHT30;59417;44.788;10.334;2023-12-20T13:34:34;9.45;70.19
28175;SHT30;59417;44.788;10.334;2023-12-20T13:37:03;9.48;70.66
28175;SHT30;59417;44.788;10.334;2023-12-20T13:39:31;9.48;70.93
28175;SHT30;59417;44.788;10.334;2023-12-20T13:41:58;9.49;70.15
28175;SHT30;59417;44.788;10.334;2023-12-20T13:44:29;9.48;69.77
28175;SHT30;59417;44.788;10.334;2023-12-20T13:46:59;9.42;70.13
28175;SHT30;59417;44.788;10.334;2023-12-20T13:49:25;9.47;70.03
28175;SHT30;59417;44.788;10.334;2023-12-20T13:51:54;9.41;70.39
28175;SHT30;59417;44.788;10.334;2023-12-20T13:54:20;9.45;70.86
28175;SHT30;59417;44.788;10.334;2023-12-20T13:56:48;9.52;70.64
28175;SHT30;59417;44.788;10.334;2023-12-20T13:59:13;9.54;70.26
28175;SHT30;59417;44.788;10.334;2023-12-20T14:01:40;9.61;69.93
28175;SHT30;59417;44.788;10.334;2023-12-20T14:04:06;9.59;69.70
28175;SHT30;59417;44.788;10.334;2023-12-20T14:06:35;9.55;69.45
28175;SHT30;59417;44.788;10.334;2023-12-20T14:09:04;9.52;69.75
28175;SHT30;59417;44.788;10.334;2023-12-20T14:11:29;9.49;70.13
28175;SHT30;59417;44.788;10.334;2023-12-20T14:13:55;9.47;70.15
28175;SHT30;59417;44.788;10.334;2023-12-20T14:16:24;9.51;70.10
28175;SHT30;59417;44.788;10.334;2023-12-20T14:18:51;9.47;70.01
28175;SHT30;59417;44.788;10.334;2023-12-20T14:21:24;9.49;70.48
28175;SHT30;59417;44.788;10.334;2023-12-20T14:23:52;9.42;70.71
28175;SHT30;59417;44.788;10.334;2023-12-20T14:26:18;9.42;71.27
28175;SHT30;59417;44.788;10.334;2023-12-20T14:28:49;9.42;71.18
28175;SHT30;59417;44.788;10.334;2023-12-20T14:31:16;9.39;71.19
28175;SHT30;59417;44.788;10.334;2023-12-20T14:33:47;9.38;71.40
28175;SHT30;59417;44.788;10.334;2023-12-20T14:36:18;9.34;71.64
28175;SHT30;59417;44.788;10.334;2023-12-20T14:38:45;9.27;71.85
28175;SHT30;59417;44.788;10.334;2023-12-20T14:41:11;9.17;72.63
28175;SHT30;59417;44.788;10.334;2023-12-20T14:43:37;9.11;72.92
28175;SHT30;59417;44.788;10.334;2023-12-20T14:46:03;9.11;73.37
28175;SHT30;59417;44.788;10.334;2023-12-20T14:48:37;9.11;72.62
28175;SHT30;59417;44.788;10.334;2023-12-20T14:51:03;9.03;72.58
28175;SHT30;59417;44.788;10.334;2023-12-20T14:53:31;9.01;72.66
28175;SHT30;59417;44.788;10.334;2023-12-20T14:55:57;9.00;72.89
28175;SHT30;59417;44.788;10.334;2023-12-20T14:58:29;8.99;72.95
28175;SHT30;59417;44.788;10.334;2023-12-20T15:00:58;8.96;72.86
28175;SHT30;59417;44.788;10.334;2023-12-20T15:03:25;8.77;73.15
28175;SHT30;59417;44.788;10.334;2023-12-20T15:05:56;8.74;73.33
28175;SHT30;59417;44.788;10.334;2023-12-20T15:08:30;8.69;73.53
28175;SHT30;59417;44.788;10.334;2023-12-20T15:11:00;8.63;73.81
28175;SHT30;59417;44.788;10.334;2023-12-20T15:13:32;8.60;74.03
28175;SHT30;59417;44.788;10.334;2023-12-20T15:16:00;8.52;74.34
28175;SHT30;59417;44.788;10.334;2023-12-20T15:18:28;8.45;74.58
28175;SHT30;59417;44.788;10.334;2023-12-20T15:21:00;8.33;74.82
28175;SHT30;59417;44.788;10.334;2023-12-20T15:23:29;8.33;74.83
28175;SHT30;59417;44.788;10.334;2023-12-20T15:26:01;8.29;75.09
28175;SHT30;59417;44.788;10.334;2023-12-20T15:28:36;8.26;75.46
28175;SHT30;59417;44.788;10.334;2023-12-20T15:31:06;8.28;75.59
28175;SHT30;59417;44.788;10.334;2023-12-20T15:33:35;8.25;75.50
28175;SHT30;59417;44.788;10.334;2023-12-20T15:36:05;8.24;75.44
28175;SHT30;59417;44.788;10.334;2023-12-20T15:38:32;8.22;75.59
28175;SHT30;59417;44.788;10.334;2023-12-20T15:41:02;8.18;75.69
28175;SHT30;59417;44.788;10.334;2023-12-20T15:43:35;8.24;75.54
28175;SHT30;59417;44.788;10.334;2023-12-20T15:46:05;8.18;75.66
28175;SHT30;59417;44.788;10.334;2023-12-20T15:48:32;8.22;75.47
28175;SHT30;59417;44.788;10.334;2023-12-20T15:51:03;8.18;75.49
28175;SHT30;59417;44.788;10.334;2023-12-20T15:53:30;8.04;75.81